Time;durP1;ratioP1;P1;durP2;ratioP2;P2;SDS_P1;SDS_P2;PMS_P1;PMS_P2;Temp;Humidity;BMP_temperature;BMP_pressure;BME280_temperature;BME280_humidity;BME280_pressure;Samples;Min_cycle;Max_cycle;Signal;HPM_P1;HPM_P2
2022/11/08 00:02:40;;;;;;;7.97;2.40;;;;;;;16.28;59.08;100883.75;5073187;28;20144;-68
2022/11/08 00:16:12;;;;;;;7.05;2.55;;;;;;;16.16;59.39;100892.03;5053326;28;20044;-68
2022/11/08 00:18:38;;;;;;;6.20;2.15;;;;;;;16.15;59.13;100892.16;5065207;28;20087;-68
2022/11/08 00:21:05;;;;;;;8.07;2.78;;;;;;;16.13;59.11;100892.31;5073154;28;20060;-68
2022/11/08 00:23:32;;;;;;;10.95;3.00;;;;;;;16.09;58.92;100899.00;5065972;28;20120;-68
2022/11/08 00:25:58;;;;;;;7.57;2.92;;;;;;;16.08;59.32;100891.03;5053296;28;20044;-68
2022/11/08 00:28:25;;;;;;;9.27;2.60;;;;;;;16.09;59.33;100890.03;5063518;28;20079;-68
2022/11/08 00:30:52;;;;;;;5.32;2.40;;;;;;;16.07;59.24;100894.75;5072738;28;20041;-68
2022/11/08 00:33:18;;;;;;;6.65;2.60;;;;;;;16.05;59.52;100883.19;5054845;28;20048;-68
2022/11/08 00:35:46;;;;;;;8.23;2.70;;;;;;;16.01;59.79;100882.63;5072866;28;20388;-68
2022/11/08 00:38:13;;;;;;;7.05;2.20;;;;;;;15.98;59.65;100885.63;5063904;28;20045;-68
2022/11/08 00:40:40;;;;;;;9.13;2.17;;;;;;;15.96;59.68;100882.19;5052251;28;20400;-68
2022/11/08 00:43:06;;;;;;;9.63;2.92;;;;;;;15.96;59.60;100886.75;5052539;28;20072;-68
2022/11/08 00:45:34;;;;;;;5.68;2.85;;;;;;;15.95;59.59;100882.34;5052710;28;20140;-68
2022/11/08 00:48:01;;;;;;;10.23;2.78;;;;;;;15.92;59.78;100877.22;5059138;28;20144;-68
2022/11/08 00:50:28;;;;;;;7.18;2.60;;;;;;;15.89;59.59;100876.50;5072456;28;20040;-68
2022/11/08 00:52:54;;;;;;;8.30;2.80;;;;;;;15.87;59.53;100873.06;5071763;28;20464;-68
2022/11/08 00:55:24;;;;;;;6.70;2.72;;;;;;;15.85;59.87;100872.34;5072345;28;20136;-68
2022/11/08 00:57:50;;;;;;;9.93;2.67;;;;;;;15.85;59.43;100871.50;5066903;28;20121;-68
2022/11/08 01:00:26;;;;;;;7.50;2.92;;;;;;;15.81;59.42;100867.38;5041589;28;20132;-67
2022/11/08 01:03:17;;;;;;;7.20;2.47;;;;;;;15.77;59.57;100861.38;5052174;28;20091;-68
2022/11/08 01:05:41;;;;;;;7.38;2.95;;;;;;;15.75;59.72;100863.38;5052215;28;20049;-67
2022/11/08 01:08:10;;;;;;;6.13;2.55;;;;;;;15.73;59.94;100861.81;5051417;28;20099;-68
2022/11/08 01:10:40;;;;;;;9.02;2.65;;;;;;;15.69;60.09;100853.13;5051648;28;20090;-68
2022/11/08 01:13:06;;;;;;;6.43;2.22;;;;;;;15.69;60.10;100865.81;5052091;28;20048;-68
2022/11/08 01:15:39;;;;;;;7.57;2.50;;;;;;;15.68;59.75;100862.25;5051944;28;20115;-67
2022/11/08 01:18:07;;;;;;;5.97;2.50;;;;;;;15.66;60.10;100864.22;5044393;28;20038;-68
2022/11/08 01:20:41;;;;;;;8.55;2.90;;;;;;;15.65;59.91;100854.41;5031890;28;20046;-68
2022/11/08 01:23:09;;;;;;;6.07;2.33;;;;;;;15.65;60.31;100857.09;5031747;28;20030;-68
2022/11/08 01:25:41;;;;;;;8.45;2.50;;;;;;;15.65;59.92;100853.53;5031766;28;20503;-68
2022/11/08 01:28:08;;;;;;;7.00;2.30;;;;;;;15.67;60.10;100865.09;5038306;28;20025;-68
2022/11/08 01:30:37;;;;;;;8.75;2.60;;;;;;;15.68;59.92;100861.38;5051883;28;20376;-68
2022/11/08 01:33:05;;;;;;;6.93;2.20;;;;;;;15.68;60.25;100850.56;5051593;28;20094;-68
2022/11/08 01:35:34;;;;;;;7.70;2.38;;;;;;;15.66;60.37;100850.69;5052365;28;20036;-67
2022/11/08 01:38:01;;;;;;;5.70;2.33;;;;;;;15.65;60.18;100853.53;5045897;28;20430;-67
2022/11/08 01:40:29;;;;;;;7.13;2.30;;;;;;;15.65;60.45;100850.84;5031547;28;20088;-68
2022/11/08 01:42:56;;;;;;;11.50;2.72;;;;;;;15.62;60.40;100849.25;5032114;28;20049;-68
2022/11/08 01:46:01;;;;;;;7.68;2.70;;;;;;;15.61;60.45;100844.84;5031958;28;20060;-67
2022/11/08 01:48:28;;;;;;;7.78;2.58;;;;;;;15.61;60.10;100844.84;5039923;28;20487;-67
2022/11/08 01:50:57;;;;;;;6.40;2.20;;;;;;;15.61;60.50;100842.16;5051320;28;20045;-68
2022/11/08 01:53:26;;;;;;;6.40;2.30;;;;;;;15.61;60.18;100834.03;5051050;28;20037;-67
2022/11/08 01:55:54;;;;;;;6.78;2.40;;;;;;;15.59;60.64;100827.84;5051525;28;20503;-68
2022/11/08 01:58:26;;;;;;;9.68;2.50;;;;;;;15.59;60.68;100830.56;5043369;28;20107;-68
2022/11/08 02:00:56;;;;;;;5.03;2.10;;;;;;;15.60;60.77;100817.88;5051079;28;20132;-68
2022/11/08 02:03:22;;;;;;;5.55;2.25;;;;;;;15.61;60.80;100816.91;5050412;28;20063;-68
2022/11/08 02:05:49;;;;;;;6.47;2.28;;;;;;;15.60;60.46;100815.19;5050745;28;20061;-68
2022/11/08 02:08:28;;;;;;;6.05;2.30;;;;;;;15.60;60.73;100810.63;5059881;28;20090;-68
2022/11/08 02:10:54;;;;;;;5.10;2.25;;;;;;;15.60;60.40;100805.22;5070375;28;20563;-66
2022/11/08 02:13:24;;;;;;;5.05;2.28;;;;;;;15.59;60.64;100798.09;5070938;28;20090;-67
2022/11/08 02:15:50;;;;;;;6.22;2.40;;;;;;;15.56;60.50;100788.38;5070693;28;20069;-68
2022/11/08 02:18:20;;;;;;;6.63;2.38;;;;;;;15.54;60.82;100784.09;5071193;28;20503;-67
2022/11/08 02:21:05;;;;;;;6.47;3.05;;;;;;;15.52;60.87;100788.78;5071058;28;20410;-68
2022/11/08 02:23:48;;;;;;;5.47;1.90;;;;;;;15.51;60.52;100781.66;5064796;28;20045;-67
2022/11/08 02:26:17;;;;;;;5.32;2.20;;;;;;;15.53;60.85;100776.97;5051035;28;20059;-68
2022/11/08 02:28:47;;;;;;;8.82;2.50;;;;;;;15.52;60.75;100768.00;5050934;28;20090;-68
2022/11/08 02:31:16;;;;;;;7.10;2.53;;;;;;;15.52;60.73;100764.44;5054954;28;20045;-68
2022/11/08 02:33:43;;;;;;;7.45;2.63;;;;;;;15.52;60.97;100770.69;5054742;28;20025;-68
2022/11/08 02:36:16;;;;;;;5.70;2.20;;;;;;;15.52;60.51;100759.88;5055734;28;20052;-67
2022/11/08 02:38:46;;;;;;;5.20;2.28;;;;;;;15.52;60.73;100756.31;5054918;28;20037;-68
2022/11/08 02:41:13;;;;;;;6.80;2.08;;;;;;;15.53;60.86;100756.16;5054708;28;20056;-68
2022/11/08 02:43:39;;;;;;;5.95;2.58;;;;;;;15.52;60.83;100759.88;5061507;28;20086;-68
2022/11/08 02:46:07;;;;;;;7.75;2.83;;;;;;;15.53;61.11;100755.31;5075163;28;20045;-68
2022/11/08 02:48:33;;;;;;;8.73;2.60;;;;;;;15.53;60.78;100755.31;5074382;28;20056;-68
2022/11/08 02:51:00;;;;;;;5.40;2.75;;;;;;;15.55;61.06;100747.91;5074654;28;20036;-68
2022/11/08 02:53:26;;;;;;;8.48;2.58;;;;;;;15.55;60.78;100747.91;5069065;28;20066;-68
2022/11/08 02:55:54;;;;;;;5.30;2.38;;;;;;;15.55;60.91;100739.78;5054678;28;20045;-68
2022/11/08 02:58:20;;;;;;;6.38;2.58;;;;;;;15.53;60.79;100739.94;5054363;28;20071;-68
2022/11/08 03:00:47;;;;;;;7.53;2.88;;;;;;;15.52;60.87;100746.34;5054254;28;20087;-68
2022/11/08 03:03:13;;;;;;;8.43;2.40;;;;;;;15.50;60.53;100728.53;5054516;28;20049;-68
2022/11/08 03:05:42;;;;;;;9.00;3.30;;;;;;;15.49;60.56;100724.13;5054365;28;20086;-68
2022/11/08 03:08:08;;;;;;;7.80;2.50;;;;;;;15.48;60.70;100720.56;5054553;28;20120;-68
2022/11/08 03:10:35;;;;;;;7.00;2.90;;;;;;;15.48;60.67;100717.84;5054233;28;20049;-68
2022/11/08 03:13:03;;;;;;;6.70;2.65;;;;;;;15.49;60.81;100718.72;5039106;28;20040;-68
2022/11/08 03:15:30;;;;;;;5.40;2.33;;;;;;;15.50;61.01;100713.16;5074405;28;20040;-68
2022/11/08 03:17:58;;;;;;;8.80;2.20;;;;;;;15.51;60.92;100709.44;5074156;28;20494;-68
2022/11/08 03:20:25;;;;;;;7.40;2.55;;;;;;;15.53;60.92;100714.72;5074181;28;20131;-68
2022/11/08 03:23:00;;;;;;;7.30;2.15;;;;;;;15.54;60.61;100713.72;5068844;28;20049;-68
2022/11/08 03:25:30;;;;;;;5.18;2.20;;;;;;;15.53;60.64;100703.88;5054228;28;20521;-68
2022/11/08 03:28:01;;;;;;;5.32;2.00;;;;;;;15.52;60.79;100704.88;5054012;28;20495;-68
2022/11/08 03:30:28;;;;;;;5.93;1.98;;;;;;;15.53;60.62;100701.19;5054503;28;20041;-68
2022/11/08 03:32:54;;;;;;;5.70;1.98;;;;;;;15.50;60.27;100696.06;5067632;28;20032;-68
2022/11/08 03:35:21;;;;;;;4.85;2.15;;;;;;;15.49;60.65;100686.22;5074159;28;20484;-67
2022/11/08 03:37:49;;;;;;;4.13;2.20;;;;;;;15.46;60.20;100675.69;5073935;28;20048;-68
2022/11/08 03:40:16;;;;;;;5.50;2.17;;;;;;;15.45;60.24;100685.66;5073796;28;20052;-68
2022/11/08 03:42:43;;;;;;;6.10;2.60;;;;;;;15.42;60.61;100677.84;5060564;28;20045;-68
2022/11/08 03:45:10;;;;;;;7.35;2.30;;;;;;;15.39;60.33;100677.25;5054248;28;20175;-68
2022/11/08 03:47:38;;;;;;;5.82;2.17;;;;;;;15.37;60.48;100674.72;5054864;28;20041;-68
2022/11/08 03:50:06;;;;;;;6.03;2.38;;;;;;;15.33;60.04;100669.72;5053548;28;20045;-67
2022/11/08 03:52:40;;;;;;;4.20;2.00;;;;;;;15.29;60.34;100665.59;5063618;28;20033;-69
2022/11/08 03:55:09;;;;;;;6.38;3.05;;;;;;;15.24;60.13;100657.91;5073823;28;20783;-68
2022/11/08 03:57:37;;;;;;;5.68;2.60;;;;;;;15.21;60.19;100661.75;5072106;28;20058;-69
2022/11/08 04:00:05;;;;;;;6.72;2.97;;;;;;;15.19;59.96;100647.53;5073184;28;20052;-68
2022/11/08 04:02:36;;;;;;;11.27;3.03;;;;;;;15.17;60.51;100638.69;5062075;28;20067;-68
2022/11/08 04:05:09;;;;;;;5.25;3.00;;;;;;;15.14;59.99;100644.41;5053162;28;20136;-68
2022/11/08 04:07:36;;;;;;;5.82;2.42;;;;;;;15.12;60.05;100635.56;5053071;28;20041;-68
2022/11/08 04:10:07;;;;;;;9.10;3.28;;;;;;;15.10;60.02;100628.59;5053053;28;20041;-68
2022/11/08 04:15:27;;;;;;;5.78;2.78;;;;;;;15.05;60.33;100620.91;5055283;28;20494;-68
2022/11/08 04:23:29;;;;;;;5.55;2.50;;;;;;;14.92;60.33;100610.38;5067597;28;20051;-68
2022/11/08 04:26:01;;;;;;;4.97;2.10;;;;;;;14.90;60.52;100606.13;5053138;28;20106;-68
2022/11/08 04:28:30;;;;;;;4.72;2.20;;;;;;;14.89;60.10;100604.41;5035059;28;20048;-68
2022/11/08 04:31:00;;;;;;;9.40;2.50;;;;;;;14.87;60.14;100601.84;5053209;28;20091;-68
2022/11/08 04:33:26;;;;;;;4.72;2.00;;;;;;;14.86;60.01;100591.16;5071452;28;20040;-68
2022/11/08 04:35:53;;;;;;;5.75;2.25;;;;;;;14.85;60.49;100589.44;5072806;28;20070;-68
2022/11/08 04:38:20;;;;;;;6.97;2.33;;;;;;;14.83;60.05;100595.00;5072597;28;20083;-68
2022/11/08 04:40:47;;;;;;;4.55;2.13;;;;;;;14.82;60.31;100598.69;5071935;28;20050;-69
2022/11/08 04:43:14;;;;;;;5.38;2.10;;;;;;;14.81;60.41;100586.16;5052382;28;20040;-68
2022/11/08 04:45:40;;;;;;;7.80;2.47;;;;;;;14.82;60.48;100584.31;5052442;28;20052;-68
2022/11/08 04:48:07;;;;;;;7.75;2.53;;;;;;;14.81;60.04;100575.34;5052554;28;20056;-69
2022/11/08 04:50:33;;;;;;;5.55;2.17;;;;;;;14.81;60.21;100574.50;5052516;28;20619;-68
2022/11/08 04:53:00;;;;;;;4.95;2.30;;;;;;;14.80;60.42;100567.38;5035154;28;20045;-68
2022/11/08 04:55:31;;;;;;;8.00;2.72;;;;;;;14.79;60.29;100568.38;5073085;28;20070;-69
2022/11/08 04:57:58;;;;;;;4.97;2.53;;;;;;;14.79;59.98;100554.88;5072255;28;20494;-68
2022/11/08 05:00:25;;;;;;;6.47;2.58;;;;;;;14.77;60.08;100555.00;5072209;28;20094;-68
2022/11/08 05:02:52;;;;;;;4.90;2.35;;;;;;;14.79;60.06;100554.88;5056457;28;20115;-69
2022/11/08 05:05:23;;;;;;;4.00;2.00;;;;;;;14.77;60.06;100540.63;5052600;28;20044;-68
2022/11/08 05:07:49;;;;;;;6.55;2.40;;;;;;;14.77;59.88;100541.50;5052131;28;20041;-68
2022/11/08 05:10:16;;;;;;;6.10;2.65;;;;;;;14.79;60.14;100541.34;5051990;28;20040;-69
2022/11/08 05:12:43;;;;;;;4.45;2.50;;;;;;;14.78;59.74;100526.13;5034884;28;20087;-69
2022/11/08 05:15:10;;;;;;;3.83;2.05;;;;;;;14.78;59.98;100528.81;5052015;28;20120;-68
2022/11/08 05:17:37;;;;;;;5.10;2.40;;;;;;;14.77;59.96;100525.28;5052476;28;20437;-70
2022/11/08 05:25:38;;;;;;;5.00;2.00;;;;;;;14.80;59.83;100516.03;5034221;28;20098;-69
2022/11/08 05:28:05;;;;;;;3.92;2.15;;;;;;;14.80;59.87;100502.50;5052199;28;20040;-69
2022/11/08 05:30:31;;;;;;;4.88;2.20;;;;;;;14.80;59.65;100513.31;5051809;28;20033;-69
2022/11/08 05:32:58;;;;;;;4.63;2.03;;;;;;;14.81;60.06;100506.91;5051580;28;20037;-69
2022/11/08 05:35:25;;;;;;;4.63;1.90;;;;;;;14.81;59.91;100507.75;5052026;28;20044;-69
2022/11/08 05:37:51;;;;;;;3.38;1.80;;;;;;;14.82;60.02;100512.19;5052115;28;20071;-69
2022/11/08 05:40:18;;;;;;;5.25;2.10;;;;;;;14.82;60.01;100504.06;5051481;28;20044;-68
2022/11/08 05:42:44;;;;;;;3.60;2.30;;;;;;;14.83;60.05;100496.81;5051587;28;20052;-69
2022/11/08 05:45:13;;;;;;;4.20;1.80;;;;;;;14.83;59.67;100511.19;5052484;28;20049;-69
2022/11/08 05:47:44;;;;;;;7.25;2.20;;;;;;;14.85;59.50;100508.31;5033376;28;20707;-68
2022/11/08 05:50:11;;;;;;;7.00;2.40;;;;;;;14.85;59.84;100492.09;5051555;28;20110;-68
2022/11/08 05:52:44;;;;;;;6.60;2.30;;;;;;;14.84;59.64;100496.66;5065775;28;20315;-69
2022/11/08 05:55:15;;;;;;;5.43;2.20;;;;;;;14.86;59.53;100483.00;5071155;28;20052;-69
2022/11/08 05:57:42;;;;;;;4.75;2.08;;;;;;;14.86;59.45;100494.69;5071375;28;20074;-68
2022/11/08 06:00:10;;;;;;;6.03;2.00;;;;;;;14.84;59.55;100499.38;5071074;28;20411;-68
2022/11/08 06:02:38;;;;;;;5.13;2.55;;;;;;;14.83;59.53;100497.66;5058077;28;20120;-68
2022/11/08 06:05:07;;;;;;;4.75;2.17;;;;;;;14.82;59.46;100493.25;5051057;28;20041;-68
2022/11/08 06:07:35;;;;;;;6.32;2.25;;;;;;;14.80;59.16;100497.94;5051142;28;20045;-68
2022/11/08 06:10:03;;;;;;;6.95;2.33;;;;;;;14.80;59.75;100499.78;5050999;28;20510;-68
2022/11/08 06:12:30;;;;;;;5.70;2.60;;;;;;;14.78;59.39;100499.94;5062103;28;20053;-69
2022/11/08 06:14:57;;;;;;;5.70;2.20;;;;;;;14.78;59.38;100497.25;5071419;28;20075;-68
2022/11/08 06:17:23;;;;;;;3.72;1.95;;;;;;;14.80;59.69;100495.25;5053259;28;20078;-68
2022/11/08 06:19:54;;;;;;;3.67;2.20;;;;;;;14.82;59.49;100484.28;5071063;28;20064;-68
2022/11/08 06:22:21;;;;;;;4.93;2.30;;;;;;;14.81;59.23;100488.84;5060462;28;20033;-68
2022/11/08 06:24:51;;;;;;;6.75;2.85;;;;;;;14.80;59.40;100487.13;5033866;28;20488;-67
2022/11/08 06:27:18;;;;;;;4.30;1.90;;;;;;;14.80;59.43;100491.69;5050911;28;20434;-68
2022/11/08 06:29:44;;;;;;;5.30;2.40;;;;;;;14.79;59.27;100489.97;5050947;28;20049;-67
2022/11/08 06:32:11;;;;;;;5.35;2.22;;;;;;;14.77;58.98;100479.31;5057889;28;20045;-68
2022/11/08 06:34:44;;;;;;;5.53;2.17;;;;;;;14.78;59.25;100480.16;5071435;28;20107;-67
2022/11/08 06:37:12;;;;;;;5.25;2.83;;;;;;;14.79;59.20;100489.97;5071050;28;20090;-67
2022/11/08 06:39:39;;;;;;;5.28;2.05;;;;;;;14.79;58.89;100488.13;5070824;28;20123;-67
2022/11/08 06:42:06;;;;;;;6.45;2.10;;;;;;;14.80;58.87;100495.25;5060371;28;20484;-67
2022/11/08 06:44:36;;;;;;;3.63;1.92;;;;;;;14.83;59.32;100486.00;5033291;28;20060;-67
2022/11/08 06:47:03;;;;;;;5.18;2.30;;;;;;;14.84;58.95;100503.91;5050689;28;20045;-67
2022/11/08 06:49:29;;;;;;;5.38;2.30;;;;;;;14.86;58.94;100499.22;5050680;28;20037;-68
2022/11/08 06:51:56;;;;;;;6.90;2.40;;;;;;;14.86;59.00;100492.00;5051442;28;20557;-67
2022/11/08 06:54:24;;;;;;;3.47;2.13;;;;;;;14.85;58.86;100486.69;5050817;28;20049;-68
2022/11/08 06:56:54;;;;;;;6.38;2.40;;;;;;;14.86;58.89;100483.00;5050527;28;20503;-67
2022/11/08 06:59:22;;;;;;;2.75;1.92;;;;;;;14.88;58.78;100497.25;5050548;28;20042;-67
2022/11/08 07:01:48;;;;;;;5.15;2.65;;;;;;;14.88;58.52;100490.00;5051267;28;20115;-67
2022/11/08 07:04:17;;;;;;;4.82;2.72;;;;;;;14.91;58.52;100488.84;5050803;28;20064;-68
2022/11/08 07:06:43;;;;;;;4.65;2.05;;;;;;;14.92;58.90;100480.59;5050550;28;20052;-67
2022/11/08 07:09:10;;;;;;;4.00;2.30;;;;;;;14.96;58.92;100485.72;5050848;28;20419;-67
2022/11/08 07:11:36;;;;;;;4.25;2.08;;;;;;;14.98;58.73;100481.00;5057844;28;20040;-67
2022/11/08 07:14:03;;;;;;;5.50;2.15;;;;;;;14.98;58.45;100481.88;5070769;28;20044;-67
2022/11/08 07:16:31;;;;;;;3.83;2.50;;;;;;;14.99;58.67;100480.88;5071735;28;20041;-68
2022/11/08 07:18:57;;;;;;;3.90;2.20;;;;;;;15.01;58.70;100492.38;5074060;28;20044;-67
2022/11/08 07:21:24;;;;;;;6.45;2.00;;;;;;;15.02;58.45;100485.13;5070864;28;20056;-68
2022/11/08 07:23:50;;;;;;;3.97;2.00;;;;;;;15.03;58.50;100492.25;5056058;28;20057;-68
2022/11/08 07:26:17;;;;;;;4.70;2.42;;;;;;;15.03;58.19;100503.91;5056329;28;20495;-68
2022/11/08 07:28:44;;;;;;;4.60;2.17;;;;;;;15.05;58.30;100501.91;5074051;28;20545;-68
2022/11/08 07:31:10;;;;;;;5.40;2.58;;;;;;;15.05;58.58;100488.41;5056021;28;20048;-68
2022/11/08 07:33:38;;;;;;;7.80;2.50;;;;;;;15.04;58.44;100500.22;5054678;28;20041;-68
2022/11/08 07:36:05;;;;;;;3.42;2.38;;;;;;;15.05;58.25;100495.66;5054222;28;20037;-65
2022/11/08 07:38:31;;;;;;;3.15;2.03;;;;;;;15.06;58.25;100491.94;5059124;28;20576;-67
2022/11/08 07:40:59;;;;;;;2.95;2.10;;;;;;;15.05;58.30;100496.50;5053976;28;20045;-65
2022/11/08 07:43:27;;;;;;;4.38;2.33;;;;;;;15.08;58.31;100498.91;5053367;28;20040;-67
2022/11/08 07:46:02;;;;;;;4.72;2.33;;;;;;;15.10;58.11;100496.06;5035890;28;20118;-65
2022/11/08 07:48:29;;;;;;;6.20;3.03;;;;;;;15.12;58.38;100502.19;5053258;28;20090;-66
2022/11/08 07:50:56;;;;;;;3.72;2.22;;;;;;;15.14;58.17;100492.06;5054660;28;20446;-67
2022/11/08 07:53:22;;;;;;;3.88;2.38;;;;;;;15.19;58.32;100493.34;5053183;28;20523;-66
2022/11/08 07:55:50;;;;;;;6.35;2.60;;;;;;;15.23;58.13;100486.63;5053577;28;20458;-66
2022/11/08 07:58:16;;;;;;;2.70;2.20;;;;;;;15.26;57.98;100486.31;5054349;28;20044;-64
2022/11/08 08:00:44;;;;;;;4.90;2.60;;;;;;;15.32;57.89;100486.75;5063958;28;20523;-65
2022/11/08 08:03:12;;;;;;;4.78;2.58;;;;;;;15.38;57.77;100495.13;5072939;28;20053;-63
2022/11/08 08:05:44;;;;;;;5.43;2.40;;;;;;;15.41;57.75;100484.00;5071578;28;20518;-64
2022/11/08 08:08:12;;;;;;;4.15;2.58;;;;;;;15.45;57.85;100471.88;5073210;28;20040;-63
2022/11/08 08:10:39;;;;;;;5.45;2.35;;;;;;;15.48;57.95;100476.97;5072640;28;20134;-63
2022/11/08 08:13:06;;;;;;;4.53;2.38;;;;;;;15.52;57.76;100474.81;5072349;28;20032;-63
2022/11/08 08:15:34;;;;;;;4.45;2.58;;;;;;;15.55;57.41;100474.53;5072891;28;20036;-63
2022/11/08 08:18:03;;;;;;;3.72;2.50;;;;;;;15.56;57.45;100476.22;5072101;28;20572;-64
2022/11/08 08:20:31;;;;;;;5.53;2.30;;;;;;;15.61;57.65;100465.88;5054859;28;20051;-63
2022/11/08 08:22:59;;;;;;;5.50;2.30;;;;;;;15.65;57.59;100469.97;5072053;28;20037;-64
2022/11/08 08:25:29;;;;;;;5.78;2.72;;;;;;;15.69;57.54;100481.34;5072828;28;20044;-63
2022/11/08 08:27:59;;;;;;;4.40;2.30;;;;;;;15.73;57.11;100480.06;5072924;28;20072;-64
2022/11/08 08:30:27;;;;;;;7.57;2.35;;;;;;;15.76;57.18;100480.59;5072854;28;20052;-64
2022/11/08 08:33:00;;;;;;;3.22;2.22;;;;;;;15.81;57.30;100480.16;5072358;28;20052;-63
2022/11/08 08:35:54;;;;;;;5.15;1.90;;;;;;;15.87;57.42;100487.66;5073088;28;20115;-63
2022/11/08 08:38:20;;;;;;;6.47;2.50;;;;;;;15.92;56.89;100496.19;5069965;28;20044;-68
2022/11/08 08:40:47;;;;;;;3.53;1.90;;;;;;;15.97;56.68;100484.91;5055934;28;20730;-66
2022/11/08 08:43:13;;;;;;;4.32;2.08;;;;;;;16.01;56.76;100494.41;5062636;28;20037;-67
2022/11/08 08:45:40;;;;;;;3.13;1.85;;;;;;;16.04;56.71;100497.69;5055396;28;20068;-67
2022/11/08 08:48:07;;;;;;;2.60;1.83;;;;;;;16.08;56.74;100503.63;5068860;28;20037;-67
2022/11/08 08:50:33;;;;;;;3.58;2.20;;;;;;;16.12;56.85;100491.50;5052323;28;20120;-67
2022/11/08 08:53:02;;;;;;;6.38;1.95;;;;;;;16.16;56.61;100496.44;5052377;28;20091;-67
2022/11/08 08:55:29;;;;;;;4.28;2.15;;;;;;;16.20;56.55;100495.13;5052412;28;20087;-68
2022/11/08 08:57:56;;;;;;;4.75;2.05;;;;;;;16.25;56.24;100510.94;5061229;28;20195;-67
2022/11/08 09:00:23;;;;;;;5.53;2.00;;;;;;;16.31;56.36;100507.59;5056461;28;20487;-67
2022/11/08 09:03:10;;;;;;;3.75;1.50;;;;;;;16.40;56.19;100497.72;5070239;28;20102;-67
2022/11/08 09:05:42;;;;;;;4.68;1.73;;;;;;;16.47;56.07;100505.09;5071947;28;20449;-67
2022/11/08 09:08:10;;;;;;;2.72;1.80;;;;;;;16.51;55.91;100498.34;5072211;28;20040;-67
2022/11/08 09:10:36;;;;;;;4.63;2.40;;;;;;;16.55;55.74;100498.88;5071958;28;20398;-68
2022/11/08 09:13:04;;;;;;;3.38;1.60;;;;;;;16.60;56.02;100495.72;5053748;28;20052;-67
2022/11/08 09:15:35;;;;;;;3.17;1.75;;;;;;;16.62;55.68;100482.84;5071475;28;20066;-68
2022/11/08 09:18:02;;;;;;;4.03;1.85;;;;;;;16.64;55.67;100480.81;5071170;28;20045;-68
2022/11/08 09:20:28;;;;;;;5.25;2.33;;;;;;;16.65;55.62;100482.53;5071726;28;20036;-68
2022/11/08 09:23:00;;;;;;;4.68;1.55;;;;;;;16.66;55.32;100476.13;5071278;28;20040;-67
2022/11/08 09:25:31;;;;;;;4.05;1.60;;;;;;;16.69;55.29;100470.38;5072201;28;20033;-67
2022/11/08 09:27:57;;;;;;;2.53;1.63;;;;;;;16.70;55.12;100455.81;5069248;28;20102;-67
2022/11/08 09:30:25;;;;;;;2.88;1.33;;;;;;;16.72;55.30;100457.38;5070769;28;20102;-67
2022/11/08 09:32:54;;;;;;;3.42;1.85;;;;;;;16.74;54.97;100460.78;5036859;28;20052;-67
2022/11/08 09:35:29;;;;;;;4.43;2.13;;;;;;;16.78;54.99;100473.00;5055258;28;20044;-67
2022/11/08 09:37:56;;;;;;;4.38;1.80;;;;;;;16.83;55.14;100475.25;5070200;28;20094;-66
2022/11/08 09:40:28;;;;;;;4.00;2.05;;;;;;;16.88;54.86;100472.06;5071252;28;20048;-67
2022/11/08 09:43:33;;;;;;;2.53;1.60;;;;;;;16.90;55.12;100465.47;5072143;28;20091;-67
2022/11/08 09:45:59;;;;;;;5.13;1.80;;;;;;;16.96;54.93;100461.25;4953668;28;20125;-67
2022/11/08 09:48:34;;;;;;;4.30;1.85;;;;;;;16.99;54.73;100458.22;5048787;28;20049;-67
2022/11/08 09:51:21;;;;;;;5.07;1.92;;;;;;;17.03;54.98;100465.03;5051839;28;20033;-67
2022/11/08 09:53:52;;;;;;;4.22;2.50;;;;;;;17.07;54.58;100451.00;5051975;28;20561;-67
2022/11/08 09:56:34;;;;;;;4.60;2.10;;;;;;;17.09;54.81;100464.41;5051055;28;20061;-67
2022/11/08 09:59:12;;;;;;;4.72;2.00;;;;;;;17.11;54.45;100465.97;5050986;28;20095;-66
2022/11/08 10:01:39;;;;;;;4.07;2.00;;;;;;;17.15;54.63;100471.94;5050968;28;20033;-67
2022/11/08 10:04:31;;;;;;;3.80;2.00;;;;;;;17.16;54.36;100457.34;5050772;28;20084;-68
2022/11/08 10:07:10;;;;;;;3.35;1.90;;;;;;;17.24;54.50;100470.97;5050440;28;20044;-68
2022/11/08 10:09:59;;;;;;;4.85;2.17;;;;;;;17.31;54.45;100472.03;5051135;28;20493;-66
2022/11/08 10:12:43;;;;;;;3.60;1.77;;;;;;;17.40;54.69;100472.91;5051658;28;20047;-66
2022/11/08 10:15:44;;;;;;;4.97;2.08;;;;;;;17.45;54.37;100476.84;5051047;28;20091;-66
2022/11/08 10:18:31;;;;;;;6.10;2.00;;;;;;;17.55;54.38;100487.56;5052124;28;20041;-67
2022/11/08 10:21:09;;;;;;;4.07;2.00;;;;;;;17.64;54.49;100485.75;5055599;28;20048;-66
2022/11/08 10:23:44;;;;;;;6.45;1.80;;;;;;;17.73;54.45;100484.78;5070005;28;20441;-66
2022/11/08 10:26:16;;;;;;;5.45;1.80;;;;;;;17.85;54.24;100478.09;5069357;28;20053;-66
2022/11/08 10:28:55;;;;;;;2.90;1.50;;;;;;;18.01;54.45;100477.28;5070836;28;20045;-66
2022/11/08 10:31:21;;;;;;;2.90;1.77;;;;;;;18.15;54.59;100476.63;5053746;28;20191;-66
2022/11/08 10:33:53;;;;;;;4.25;1.60;;;;;;;18.29;54.10;100486.84;5050728;28;20103;-67
2022/11/08 10:36:26;;;;;;;3.35;1.50;;;;;;;18.42;54.30;100481.75;5051222;28;20060;-67
2022/11/08 10:39:07;;;;;;;4.22;1.67;;;;;;;18.49;53.53;100487.38;5050797;28;20107;-67
2022/11/08 10:41:43;;;;;;;3.17;1.40;;;;;;;18.55;53.54;100491.28;5052176;28;20065;-66
2022/11/08 10:44:28;;;;;;;2.97;1.60;;;;;;;18.58;53.31;100494.56;5051352;28;20483;-68
2022/11/08 10:46:54;;;;;;;2.47;1.40;;;;;;;18.62;53.37;100479.63;5050797;28;20041;-66
2022/11/08 10:49:29;;;;;;;3.55;1.42;;;;;;;18.66;53.10;100477.41;5050519;28;20394;-66
2022/11/08 10:52:01;;;;;;;4.50;2.47;;;;;;;18.71;53.22;100480.47;5053120;28;20053;-66
2022/11/08 10:54:47;;;;;;;4.20;1.30;;;;;;;18.74;52.96;100482.84;5055167;28;20049;-66
2022/11/08 10:57:31;;;;;;;5.07;1.42;;;;;;;18.76;52.62;100483.53;5054985;28;20041;-67
2022/11/08 11:00:18;;;;;;;4.63;1.55;;;;;;;18.77;52.63;100485.22;5055324;28;20045;-66
2022/11/08 11:02:50;;;;;;;3.70;1.63;;;;;;;18.78;52.75;100486.09;5054118;28;20037;-67
2022/11/08 11:05:35;;;;;;;2.60;1.23;;;;;;;18.75;52.34;100476.38;5054682;28;20099;-66
2022/11/08 11:08:06;;;;;;;4.03;1.77;;;;;;;18.76;52.31;100478.09;5054455;28;20553;-67
2022/11/08 11:10:35;;;;;;;4.50;1.45;;;;;;;18.77;52.20;100485.22;5055094;28;20341;-66
2022/11/08 11:13:16;;;;;;;5.40;1.45;;;;;;;18.77;52.35;100487.09;5048702;28;20510;-67
2022/11/08 11:15:49;;;;;;;3.75;1.40;;;;;;;18.77;52.29;100485.22;5074516;28;20045;-66
2022/11/08 11:18:35;;;;;;;4.45;1.58;;;;;;;18.76;52.11;100488.97;5074309;28;20052;-68
2022/11/08 11:21:12;;;;;;;3.83;1.83;;;;;;;18.78;51.90;100480.63;5063751;28;20057;-67
2022/11/08 11:23:54;;;;;;;2.50;1.40;;;;;;;18.77;52.06;100471.63;5073665;28;20114;-67
2022/11/08 11:26:34;;;;;;;2.60;1.33;;;;;;;18.79;52.19;100474.19;5074236;28;20040;-67
2022/11/08 11:29:04;;;;;;;5.63;1.77;;;;;;;18.80;52.16;100468.56;5074290;28;20445;-67
2022/11/08 11:31:32;;;;;;;5.00;1.58;;;;;;;18.81;51.98;100466.69;5071782;28;20430;-67
2022/11/08 11:34:32;;;;;;;6.38;1.67;;;;;;;18.80;52.14;100454.97;5074172;28;20040;-67
2022/11/08 11:37:13;;;;;;;5.13;1.42;;;;;;;18.81;51.99;100443.06;5039879;28;20057;-67
2022/11/08 11:40:11;;;;;;;4.88;1.80;;;;;;;18.82;51.36;100424.88;5072945;28;20044;-67
2022/11/08 11:42:53;;;;;;;5.47;1.67;;;;;;;18.88;51.73;100426.91;5053389;28;20132;-66
2022/11/08 11:45:57;;;;;;;2.80;1.80;;;;;;;18.91;52.00;100421.97;5053657;28;20049;-67
2022/11/08 11:48:27;;;;;;;4.75;1.50;;;;;;;18.98;51.62;100425.69;5053875;28;20095;-67
2022/11/08 11:50:55;;;;;;;3.17;1.63;;;;;;;19.02;51.70;100418.88;5053133;28;20045;-67
2022/11/08 11:53:26;;;;;;;3.03;1.60;;;;;;;19.05;51.32;100429.41;5054418;28;20043;-67
2022/11/08 11:56:13;;;;;;;4.35;1.63;;;;;;;19.10;51.53;100425.31;5053872;28;20099;-67
2022/11/08 11:59:04;;;;;;;3.35;1.50;;;;;;;19.14;51.52;100413.91;5058852;28;20032;-67
2022/11/08 12:02:02;;;;;;;3.42;1.50;;;;;;;19.17;51.39;100426.31;5072850;28;20105;-66
2022/11/08 12:04:54;;;;;;;3.38;1.60;;;;;;;19.21;51.09;100414.03;5073390;28;20510;-67
2022/11/08 12:07:20;;;;;;;2.25;1.50;;;;;;;19.27;50.98;100418.78;5073305;28;20060;-67